This site, now in its 15th season, is a labour of love and fun from one of Ottawa's most avid time trialists and number crunchers. It adheres to and is permitted by the laws of Canada, promotes the objectives of every bicycle club whose results are shown, and is donated free of charge by myself for your enjoyment and usage. If you would like results from series you ride in to be shown here, give me (celia@drmath.ca) a shout!


Index Page
ATT OTT WTT CFCTT VVVTT
Help resultformat:
Case-sensitive

OBC Open TT Series - 2002-Aug-29 - 15km (Rockliffe Pkwy) (EvtFactor = 0.9267)

Weather (18:00): Mostly Cloudy. Temp.: 22°C, Humidity 66%, Humidex 26°C, Pressure: 102.2kPa, Wind: SSE 13km/h.
Weather (19:00): Mostly Cloudy. Temp.: 21°C, Humidity 67%, Humidex 25°C, Pressure: 102.2kPa, Wind: S 9km/h.

Send photos with description (when/where/what) of yourself on or off of bike to celia@drmath.ca

Most of the 65 riders out for tonight's TT had a rougher time than usual with winds from the SSE on the way out and from the south on the way back. Still, nine met or exceeded their previous year series bests.

 
 

BESTS?
 
1 Fillion, Aaron  OBC 20:08 44.702 1/65 SEM 1/9 0.9632
2 Sudac, Rick  OBC 20:29 43.938 2/65 VCM 1/8 0.9782
3 Datars, Paul  OBC 20:33 43.796 3/65 VBM 1/19 0.9013
4 Hinz, Richard OBC 21:04 42.722 4/65 VBM 2/19 0.9953
5 Fairhead, Denis OBC 21:33 41.763 5/65 VBM 3/19 0.9498
6 Guenette, Jean-Yves OBC 21:35 41.699 6/65 VBM 4/19 1.1355
7 Henschel, Peter OBC 21:40 41.538 7/65 VBM 5/19 0.9612
8 Hamilton, Peter --- 21:42 41.475 8/65 VAM 1/11 0.9840
9 Reain, Alan --- 21:54 41.096 9/65 SEM 2/9  
10 Christie, Greg  OBC 22:13 40.510 10/65 VBM 6/19 0.9866
11 Morvan, Jacques  OBC 22:19 40.329 11/65 VCM 2/8 0.9778
12 Lau, Michael OBC 22:26 40.119 12/65 VBM 7/19 0.9626
13 Weiser, Paul OBC 22:27 40.089 13/65 VCM 3/8 0.8743
14 Fontaine, Randy OBC 22:50 39.416 14/65 VAM 2/11 1.0088
15 St-Amour, Pierre OBC 22:58 39.187 15/65 VBM 8/19 0.9216
16 Demers, François --- 23:04 39.017 16/65 VAM 3/11 0.9721
17 Gustavsson, Robert OBC 23:10 38.849 17/65 CAM 1/2 0.8740
18 Churchill, Lee --- 23:14 38.737 18/65 SEM 3/9  
Moerman, Bram  OBC 23:14 38.737 18/65 VCM 4/8 0.8882
20 McKay, Allison  OBC 23:16 38.682 20/65 VAF 1/3 0.9514
21 Yurich, Chad --- 23:22 38.516 21/65 SEM 4/9  
22 McMillan, Brent OBC 23:25 38.434 22/65 SEM 5/9 0.9089
23 Marchand, Claude OBC 23:26 38.407 23/65 VBM 9/19 1.0280
24 Smeulders, Paul OBC 23:37 38.109 24/65 VAM 4/11 0.9686
25 van Melle, Reid OBC 23:38 38.082 25/65 SEM 6/9  
26 Maly, Peter OBC 23:41 38.001 26/65 SEM 7/9 0.9728
27 Imbrogno, Giorgio  OBC 23:45 37.895 27/65 VCM 5/8 0.9749
28 Pazdzior, Ellen  OBC 23:46 37.868 28/65 VBF 1/6 1.0448
29 Wright, Eric OBC 23:47 37.842 29/65 VAM 5/11 0.9585
30 Blunt, Stuart --- 23:50 37.762 30/65 SEM 8/9  
31 Clarke, Shawn ABC 23:52 37.709 31/65 CAM 2/2 0.8603
32 Gilchrist, Ryan  OBC 23:55 37.631 32/65 VAM 6/11  
Y 33 Beaton, Dale OBC 23:57 37.578 33/65 MIM 1/1 1.0021
34 McKay, Andrea  OBC 23:59 37.526 34/65 VAF 2/3 1.0000
35 James, Peter OBC 24:01 37.474 35/65 VBM 10/19 0.9053
36 Humphreys, Les  OBC/ABC 24:05 37.370 36/65 VDM 1/2 0.9630
37 Lacroix, Guy OBC 24:06 37.344 37/65 VAM 7/11 0.9631
38 Dionne, Suzanne  OBC 24:09 37.267 38/65 VBF 2/6 0.9253
39 Coldwell, Michael  OBC 24:14 37.139 39/65 VBM 11/19 0.8568
40 Nelson, Kevin OBC 24:19 37.012 40/65 VAM 8/11 0.9575
41 Hall, David  OBC 24:20 36.986 41/65 VBM 12/19 0.9142
42 Thibault, Jean-Pierre OBC 24:31 36.710 42/65 SEM 9/9 0.9678
43 Ménard-Kilrane, René OBC 24:32 36.685 43/65 JUM 1/1 0.9323
44 Radford, Normand OBC 24:42 36.437 44/65 VBM 13/19 0.8927
45 Taylor, Chris OBC 24:44 36.388 45/65 VBM 14/19 0.8743
46 Aimers, Julia OBC 25:01 35.976 46/65 VAF 3/3 0.9412
47 Samborsky, Mark OBC 25:04 35.904 47/65 VAM 9/11 0.9261
48 Illing, Martin --- 25:07 35.833 48/65 VAM 10/11 0.9861
49 Ajersch, Mary  OBC 25:37 35.133 49/65 VDF 1/1 0.9902
50 Cameron, Allen  OBC 25:38 35.111 50/65 VBM 15/19 0.9577
51 Janusauskas, Vytas  OBC 26:01 34.593 51/65 VBM 16/19 1.0154
52 McInnis, Celia  OBC 26:46 33.624 52/65 VBF 3/6 0.8511
Werbenuk, Lorne OBC 26:46 33.624 52/65 VCM 6/8 0.9289
54 Ramonat, Christa  OBC 27:20 32.927 54/65 VBF 4/6 0.9946
55 McLaughlin, Brian OBC 27:25 32.827 55/65 VBM 17/19 0.8912
56 Matz, Robert OBC 27:44 32.452 56/65 VAM 11/11  
57 Wright, Geoffrey  OBC 27:45 32.432 57/65 VEM 1/1 1.0438
58 O'Toole, Patrick OBC 27:50 32.335 58/65 VCM 7/8 1.0548
59 Tsompanellis, Stratos OBC 27:55 32.239 59/65 VBM 18/19  
60 Cornish, Jane OBC 28:34 31.505 60/65 VBF 5/6 0.9518
61 Armstrong, Jane OBC 29:20 30.682 61/65 VBF 6/6 0.8315
62 Stang, Phil OBC 29:43 30.286 62/65 VBM 19/19 0.8084
63 Krausbar, Nikolas OBC 30:16 29.736 63/65 PWM 1/1 0.9196
64 Burdett, Avery  OBC DNS   65/65 VDM 2/2  
Hardy, Robert OBC DNF   64/65 VCM 8/8  
 
Average Speed of all of the above 63 finishes (945km in 25:31:24):37.025
>>>Average of the Average Speeds for these 63 finishes37.330<<<
 

The number of data records shown above is 65
The server processing of your query took: 2 wallclock secs ( 0.17 usr + 0.04 sys = 0.21 CPU)

Thanks to our Helpers: Mary Ajersch (S.S. & C.K.O), Avery Burdett, Sally Datars, Greg Crevier, Leona Gray, Wolf Illing, Celia McInnis, Alex McKnight, Monique Ménard.

     


Mar 29 (Good Friday)
May 2 May 7 (10km) May 9 May 14 (10km) (cancelled) May 16 May 21 May 21 (10km) May 23 May 26 (40km) May 28 May 28 (10km) May 30
Jun 4 Jun 4 Jun 6 Jun 11 (cancelled) Jun 11 Jun 13 Jun 18 (40km) Jun 18 Jun 20 Jun 25 Jun 25 Jun 27
Jul 2 Jul 2 Jul 4 Jul 7 (40km) Jul 9 Jul 9 Jul 11 Jul 16 Jul 16 Jul 18 Jul 23 Jul 23 Jul 25 Jul 30 Jul 30
Aug 1 Aug 6 Aug 6 Aug 8 Aug 13 Aug 13 Aug 15 Aug 18 (40km) Aug 20 Aug 20 Aug 22 Aug 27 Aug 27 (Invitational)
  Aug 29  
Sep 3 Sep 5 (Age-Handicapped) Sep 8 (40km) Sep 10 Sep 12 Sep 17 Sep 19 Sep 24

OTT Rankings
Best       Best by category
WTT Rankings for OBC Members
5 Best 15km     5 Best 15km by category
OBC Member Best Three 15km Rankings
Overall     by category
OBC BAR Ranking
Overall     by category     Rider "Consistency-Graph"
ABC BAR Ranking
Overall     by category     Rider "Consistency-Graph"
Other years
TT Calculator All TT People All TT events
ABC Home VVV Home
CKAP GOLD MEDAL
Other Links

Please send your comments and suggestions to: Celia McInnis
Copyright © 1998-2011 Celia McInnis. All rights reserved. Links are welcomed.